Time;durP1;ratioP1;P1;durP2;ratioP2;P2;SDS_P1;SDS_P2;PMS_P1;PMS_P2;Temp;Humidity;BMP_temperature;BMP_pressure;BME280_temperature;BME280_humidity;BME280_pressure;Samples;Min_cycle;Max_cycle;Signal;HPM_P1;HPM_P2
2022/11/19 00:01:14;;;;;;;12.60;6.97;;;-1.80;99.90;;;;;;4131432;28;20470;-79
2022/11/19 00:03:18;;;;;;;12.93;6.40;;;-1.80;99.90;;;;;;4136117;28;20575;-78
2022/11/19 00:05:20;;;;;;;12.90;6.73;;;-1.80;99.90;;;;;;4123530;28;20464;-78
2022/11/19 00:07:22;;;;;;;13.07;6.82;;;-1.80;99.90;;;;;;4121309;28;20484;-78
2022/11/19 00:09:26;;;;;;;12.90;6.35;;;-1.90;99.90;;;;;;4136639;28;20205;-78
2022/11/19 00:13:50;;;;;;;13.98;6.32;;;-2.00;99.90;;;;;;4125196;28;20494;-78
2022/11/19 00:15:52;;;;;;;13.90;7.30;;;-2.00;99.90;;;;;;4127294;28;20204;-78
2022/11/19 00:17:54;;;;;;;10.65;5.72;;;-2.00;99.90;;;;;;4131784;28;20622;-78
2022/11/19 00:19:58;;;;;;;17.17;6.95;;;-2.00;99.90;;;;;;4131965;28;20204;-78
2022/11/19 00:22:00;;;;;;;15.53;6.63;;;-1.70;99.90;;;;;;4130333;28;20811;-78
2022/11/19 00:24:02;;;;;;;15.25;7.25;;;-2.20;99.90;;;;;;4126271;28;20460;-78
2022/11/19 00:26:08;;;;;;;15.27;6.40;;;-2.20;99.90;;;;;;4143906;28;20208;-79
2022/11/19 00:28:09;;;;;;;13.67;6.93;;;-2.20;99.90;;;;;;4125653;28;20236;-78
2022/11/19 00:30:13;;;;;;;12.93;6.35;;;-2.20;99.90;;;;;;4127182;28;20448;-78
2022/11/19 00:32:15;;;;;;;12.77;6.80;;;-2.20;99.90;;;;;;4126610;28;20224;-78
2022/11/19 00:34:16;;;;;;;12.60;6.22;;;-2.30;99.90;;;;;;4123704;28;20623;-78
2022/11/19 00:36:18;;;;;;;12.95;6.18;;;-2.30;99.90;;;;;;4127916;28;20252;-78
2022/11/19 00:38:20;;;;;;;13.88;6.95;;;-2.30;99.90;;;;;;4126825;28;20670;-78
2022/11/19 00:40:22;;;;;;;15.23;7.10;;;-2.40;99.90;;;;;;4140940;28;20231;-78
2022/11/19 00:42:25;;;;;;;14.52;6.90;;;-2.40;99.90;;;;;;4125403;28;20244;-77
2022/11/19 00:44:26;;;;;;;21.05;8.93;;;-2.40;99.90;;;;;;4122347;28;20251;-77
2022/11/19 00:46:30;;;;;;;22.50;9.60;;;-2.50;99.90;;;;;;4123549;28;20221;-78
2022/11/19 00:48:32;;;;;;;24.60;9.95;;;-2.50;99.90;;;;;;4128245;28;20230;-79
2022/11/19 00:50:34;;;;;;;20.40;8.88;;;-2.50;99.90;;;;;;4163404;23;20235;-82
2022/11/19 00:52:36;;;;;;;17.30;8.07;;;-2.60;99.90;;;;;;4153268;28;20626;-81
2022/11/19 00:54:38;;;;;;;15.13;7.30;;;-2.60;99.90;;;;;;4149716;28;20204;-81
2022/11/19 00:56:39;;;;;;;17.13;7.40;;;-2.60;99.90;;;;;;4156782;28;20466;-81
2022/11/19 00:58:43;;;;;;;14.30;6.07;;;-2.60;99.90;;;;;;4150335;28;20200;-81
2022/11/19 01:00:45;;;;;;;12.70;6.78;;;-2.70;99.90;;;;;;4144825;28;20229;-82
2022/11/19 01:02:47;;;;;;;12.85;6.68;;;-2.70;99.90;;;;;;4140103;28;20220;-82
2022/11/19 01:04:49;;;;;;;14.52;6.78;;;-2.70;99.90;;;;;;4137926;28;20717;-82
2022/11/19 01:06:51;;;;;;;15.10;6.35;;;-2.80;99.90;;;;;;4139113;28;20215;-83
2022/11/19 01:08:53;;;;;;;16.02;6.97;;;-2.80;99.90;;;;;;4141023;28;20267;-82
2022/11/19 01:10:56;;;;;;;15.40;7.25;;;-2.80;99.90;;;;;;4143234;28;20654;-81
2022/11/19 01:15:19;;;;;;;14.27;6.50;;;-3.00;99.90;;;;;;4140982;28;20209;-81
2022/11/19 01:17:21;;;;;;;14.10;6.82;;;-2.90;99.90;;;;;;4136442;28;20209;-80
2022/11/19 01:19:23;;;;;;;12.40;6.40;;;-2.10;99.90;;;;;;4144379;28;20304;-79
2022/11/19 01:21:26;;;;;;;13.57;6.55;;;-3.00;99.90;;;;;;4131080;28;20308;-80
2022/11/19 01:23:28;;;;;;;13.15;6.45;;;-3.00;99.90;;;;;;4128005;28;20282;-80
2022/11/19 01:25:30;;;;;;;14.90;6.97;;;-3.00;99.90;;;;;;4126587;28;20703;-80
2022/11/19 01:27:32;;;;;;;14.60;6.65;;;-3.00;99.90;;;;;;4127244;28;20212;-79
2022/11/19 01:29:34;;;;;;;13.55;6.95;;;-3.10;99.90;;;;;;4131063;28;20216;-80
2022/11/19 01:31:38;;;;;;;14.55;6.68;;;-3.10;99.90;;;;;;4134962;28;20255;-80
2022/11/19 01:33:40;;;;;;;14.32;6.70;;;-3.20;99.90;;;;;;4130278;28;20660;-80
2022/11/19 01:35:42;;;;;;;13.20;6.28;;;-3.20;99.90;;;;;;4130093;28;20236;-80
2022/11/19 01:37:44;;;;;;;14.52;6.80;;;-3.20;99.90;;;;;;4130304;28;20228;-81
2022/11/19 01:39:46;;;;;;;14.40;6.55;;;-3.30;99.90;;;;;;4135951;28;20212;-81
2022/11/19 01:41:48;;;;;;;17.23;7.53;;;-3.30;99.90;;;;;;4141777;28;20229;-81
2022/11/19 01:43:51;;;;;;;14.38;6.40;;;-3.30;99.90;;;;;;4146541;28;20264;-81
2022/11/19 01:45:53;;;;;;;15.95;7.22;;;-3.40;99.90;;;;;;4146975;28;20199;-80
2022/11/19 01:48:01;;;;;;;18.30;7.50;;;-3.40;99.90;;;;;;4147634;28;20730;-79
2022/11/19 01:50:03;;;;;;;17.05;6.70;;;-3.40;99.90;;;;;;4150444;28;20236;-80
2022/11/19 01:52:06;;;;;;;12.98;6.53;;;-3.40;99.90;;;;;;4147465;28;20216;-80
2022/11/19 01:54:12;;;;;;;15.60;7.35;;;-3.40;99.90;;;;;;4138536;28;20209;-80
2022/11/19 01:56:17;;;;;;;15.13;6.80;;;-3.50;99.90;;;;;;4134089;28;20208;-79
2022/11/19 01:58:23;;;;;;;14.43;6.45;;;-3.40;99.90;;;;;;4132630;28;20208;-79
2022/11/19 02:00:25;;;;;;;17.70;7.28;;;-3.50;99.90;;;;;;4138764;28;20788;-81
2022/11/19 02:02:27;;;;;;;13.43;6.70;;;-3.50;99.90;;;;;;4136174;28;20876;-79
2022/11/19 02:04:32;;;;;;;13.57;6.88;;;-3.60;99.90;;;;;;4138606;28;20734;-80
2022/11/19 02:06:35;;;;;;;14.30;6.93;;;-3.60;99.90;;;;;;4130736;28;20223;-79
2022/11/19 02:08:42;;;;;;;16.25;7.10;;;-3.60;99.90;;;;;;4137305;28;20311;-80
2022/11/19 02:10:51;;;;;;;17.08;7.57;;;-3.70;99.90;;;;;;4134478;28;20686;-80
2022/11/19 02:13:03;;;;;;;14.52;6.93;;;-3.70;99.90;;;;;;4134150;28;20223;-81
2022/11/19 02:15:21;;;;;;;14.35;6.80;;;-3.70;99.90;;;;;;4131471;28;20221;-80
2022/11/19 02:17:34;;;;;;;19.65;7.70;;;-3.70;99.90;;;;;;4134804;28;20239;-80
2022/11/19 02:20:02;;;;;;;18.23;6.97;;;-3.80;99.90;;;;;;4134712;28;20223;-80
2022/11/19 02:22:16;;;;;;;14.73;6.78;;;-3.80;99.90;;;;;;4136552;28;20204;-80
2022/11/19 02:24:34;;;;;;;16.30;7.35;;;-3.80;99.90;;;;;;4130892;28;20372;-80
2022/11/19 02:27:08;;;;;;;20.73;7.15;;;-3.90;99.90;;;;;;4131802;28;20218;-79
2022/11/19 02:29:20;;;;;;;15.73;7.88;;;-3.90;99.90;;;;;;4130400;28;20235;-80
2022/11/19 02:31:27;;;;;;;16.65;7.55;;;-3.90;99.90;;;;;;4132950;28;20246;-80
2022/11/19 02:33:36;;;;;;;17.42;7.72;;;-3.90;99.90;;;;;;4130574;28;20238;-80
2022/11/19 02:35:45;;;;;;;16.48;7.45;;;-3.90;99.90;;;;;;4127255;28;20215;-80
2022/11/19 02:37:55;;;;;;;13.10;6.63;;;-4.00;99.90;;;;;;4131978;28;20212;-80
2022/11/19 02:40:04;;;;;;;16.80;7.35;;;-4.00;99.90;;;;;;4132149;28;20236;-80
2022/11/19 02:42:14;;;;;;;14.77;7.10;;;-4.00;99.90;;;;;;4130277;28;20691;-81
2022/11/19 02:46:43;;;;;;;14.40;6.72;;;-4.10;99.90;;;;;;4131384;28;20211;-80
2022/11/19 02:48:49;;;;;;;19.40;7.15;;;-4.10;99.90;;;;;;4134714;28;20220;-80
2022/11/19 02:50:55;;;;;;;18.77;7.28;;;-4.10;99.90;;;;;;4132687;28;20251;-80
2022/11/19 02:52:57;;;;;;;16.38;7.53;;;-4.10;99.90;;;;;;4131147;28;20211;-80
2022/11/19 02:54:59;;;;;;;19.13;7.15;;;-4.10;99.90;;;;;;4133919;28;20215;-80
2022/11/19 02:57:01;;;;;;;18.63;7.38;;;-4.20;99.90;;;;;;4131154;28;20722;-80
2022/11/19 03:06:12;;;;;;;17.38;7.45;;;-4.20;99.90;;;;;;4126117;28;20214;-79
2022/11/19 03:08:14;;;;;;;14.85;6.70;;;-4.20;99.90;;;;;;4130448;28;20222;-79
2022/11/19 03:10:19;;;;;;;20.17;7.18;;;-4.30;99.90;;;;;;4128220;28;20240;-79
2022/11/19 03:12:26;;;;;;;17.30;6.47;;;-4.50;99.90;;;;;;4128942;28;20286;-79
2022/11/19 03:17:02;;;;;;;18.40;7.90;;;-4.20;99.90;;;;;;4125031;28;20220;-80
2022/11/19 03:19:12;;;;;;;18.27;7.28;;;-4.30;99.90;;;;;;4128485;28;20204;-79
2022/11/19 03:21:21;;;;;;;16.52;7.75;;;-4.30;99.90;;;;;;4124319;28;20234;-79
2022/11/19 03:23:29;;;;;;;19.55;7.85;;;-4.40;99.90;;;;;;4128927;28;20231;-79
2022/11/19 03:25:38;;;;;;;18.52;7.57;;;-4.40;99.90;;;;;;4130435;28;21041;-80
2022/11/19 03:27:43;;;;;;;16.73;7.05;;;-4.40;99.90;;;;;;4134014;28;20383;-79
2022/11/19 03:29:50;;;;;;;15.77;6.80;;;-4.40;99.90;;;;;;4132741;28;20617;-79
2022/11/19 03:31:58;;;;;;;17.33;7.57;;;-4.40;99.90;;;;;;4135806;28;20331;-78
2022/11/19 03:34:05;;;;;;;17.45;7.82;;;-4.40;99.90;;;;;;4133958;28;20240;-80
2022/11/19 03:36:13;;;;;;;15.00;6.80;;;-4.50;99.90;;;;;;4136887;28;20208;-80
2022/11/19 03:38:18;;;;;;;17.73;7.45;;;-4.50;99.90;;;;;;4137984;28;20212;-79
2022/11/19 03:40:22;;;;;;;16.95;7.50;;;-4.50;99.90;;;;;;4139774;28;20236;-78
2022/11/19 03:42:26;;;;;;;16.92;7.30;;;-4.50;99.90;;;;;;4134884;28;20310;-79
2022/11/19 03:44:32;;;;;;;16.05;7.05;;;-4.50;99.90;;;;;;4134606;28;20280;-79
2022/11/19 03:46:36;;;;;;;16.23;7.07;;;-4.60;99.90;;;;;;4135955;28;20213;-80
2022/11/19 03:48:42;;;;;;;17.88;7.57;;;-4.60;99.90;;;;;;4135283;28;20216;-79
2022/11/19 03:50:49;;;;;;;15.38;6.70;;;-4.60;99.90;;;;;;4134423;28;20298;-80
2022/11/19 03:52:53;;;;;;;16.23;7.13;;;-4.60;99.90;;;;;;4136135;28;20452;-79
2022/11/19 03:54:55;;;;;;;16.55;7.78;;;-4.60;99.90;;;;;;4136582;28;20633;-79
2022/11/19 03:56:58;;;;;;;15.75;7.13;;;-4.70;99.90;;;;;;4135256;28;20323;-81
2022/11/19 03:59:00;;;;;;;15.98;7.60;;;-4.70;99.90;;;;;;4134884;28;20218;-82
2022/11/19 04:01:02;;;;;;;16.98;7.53;;;-4.70;99.90;;;;;;4139261;28;20661;-81
2022/11/19 04:03:05;;;;;;;20.10;8.50;;;-4.70;99.90;;;;;;4138525;28;20266;-81
2022/11/19 04:05:08;;;;;;;16.98;7.47;;;-4.70;99.90;;;;;;4139589;28;20215;-81
2022/11/19 04:07:11;;;;;;;16.85;7.57;;;-4.70;99.90;;;;;;4139701;28;20284;-81
2022/11/19 04:09:15;;;;;;;18.48;7.28;;;-4.70;99.90;;;;;;4140722;28;20311;-81
2022/11/19 04:11:17;;;;;;;17.92;7.75;;;-4.70;99.90;;;;;;4143368;28;20253;-81
2022/11/19 04:13:19;;;;;;;15.45;7.50;;;-4.80;99.90;;;;;;4140448;28;20749;-81
2022/11/19 04:15:21;;;;;;;15.60;7.10;;;-4.70;99.90;;;;;;4140543;28;20217;-81
2022/11/19 04:17:23;;;;;;;14.75;7.13;;;-4.80;99.90;;;;;;4135241;28;20660;-81
2022/11/19 04:19:25;;;;;;;16.38;7.40;;;-4.80;99.90;;;;;;4138692;28;20690;-81
2022/11/19 04:21:26;;;;;;;15.68;7.00;;;-4.80;99.90;;;;;;4135049;28;20237;-80
2022/11/19 04:23:28;;;;;;;16.05;7.65;;;-4.80;99.90;;;;;;4136222;28;20261;-80
2022/11/19 04:25:32;;;;;;;18.02;7.45;;;-4.80;99.90;;;;;;4137104;28;20518;-81
2022/11/19 04:27:34;;;;;;;17.20;7.93;;;-4.80;99.90;;;;;;4142801;28;20219;-81
2022/11/19 04:29:36;;;;;;;16.58;7.10;;;-3.90;99.90;;;;;;4143903;28;20215;-81
2022/11/19 04:31:38;;;;;;;17.45;7.38;;;-4.80;99.90;;;;;;4147867;28;20216;-82
2022/11/19 04:33:40;;;;;;;16.98;7.35;;;-4.80;99.90;;;;;;4145410;28;20205;-81
2022/11/19 04:35:44;;;;;;;17.23;7.60;;;-4.90;99.90;;;;;;4150662;28;20212;-80
2022/11/19 04:37:46;;;;;;;15.30;7.35;;;-4.90;99.90;;;;;;4145868;28;20215;-81
2022/11/19 04:39:48;;;;;;;18.23;7.57;;;-4.90;99.90;;;;;;4146705;28;20210;-81
2022/11/19 04:41:51;;;;;;;14.15;6.75;;;-4.90;99.90;;;;;;4142097;28;20222;-81
2022/11/19 04:43:53;;;;;;;15.52;7.28;;;-4.90;99.90;;;;;;4143936;28;20716;-81
2022/11/19 04:45:55;;;;;;;15.43;6.95;;;-4.90;99.90;;;;;;4143954;28;20210;-81
2022/11/19 04:47:57;;;;;;;14.90;6.78;;;-4.90;99.90;;;;;;4137964;28;20241;-80
2022/11/19 04:49:59;;;;;;;17.85;7.57;;;-5.00;99.90;;;;;;4138467;28;20283;-80
2022/11/19 04:52:01;;;;;;;17.88;6.93;;;-5.00;99.90;;;;;;4138364;28;20666;-81
2022/11/19 04:54:03;;;;;;;17.15;6.95;;;-5.00;99.90;;;;;;4138707;28;20371;-81
2022/11/19 04:56:06;;;;;;;17.02;7.80;;;-5.00;99.90;;;;;;4137427;28;20680;-81
2022/11/19 04:58:09;;;;;;;17.60;7.38;;;-5.00;99.90;;;;;;4138783;28;20316;-82
2022/11/19 05:00:12;;;;;;;17.02;6.88;;;-5.00;99.90;;;;;;4136396;28;20224;-82
2022/11/19 05:02:14;;;;;;;15.55;7.20;;;-5.00;99.90;;;;;;4140838;28;20281;-81
2022/11/19 05:04:16;;;;;;;18.92;7.70;;;-5.10;99.90;;;;;;4139687;28;20248;-82
2022/11/19 05:06:18;;;;;;;15.70;7.07;;;-5.10;99.90;;;;;;4139904;28;20210;-81
2022/11/19 05:08:20;;;;;;;15.27;6.78;;;-5.10;99.90;;;;;;4137274;28;20283;-81
2022/11/19 05:10:22;;;;;;;15.93;6.90;;;-5.10;99.90;;;;;;4139134;28;20255;-79
2022/11/19 05:12:24;;;;;;;17.58;6.50;;;-5.10;99.90;;;;;;4135311;28;20299;-80
2022/11/19 05:14:28;;;;;;;15.90;7.63;;;-5.10;99.90;;;;;;4135625;28;20298;-80
2022/11/19 05:16:29;;;;;;;14.77;7.18;;;-5.10;99.90;;;;;;4130772;28;20345;-79
2022/11/19 05:18:31;;;;;;;16.30;6.85;;;-5.10;99.90;;;;;;4131086;28;20225;-79
2022/11/19 05:20:33;;;;;;;15.80;6.93;;;-5.10;99.90;;;;;;4135158;28;20240;-80
2022/11/19 05:22:35;;;;;;;15.80;7.40;;;-5.10;99.90;;;;;;4132499;28;20579;-79
2022/11/19 05:24:37;;;;;;;17.15;7.25;;;-5.20;99.90;;;;;;4130796;28;20232;-79
2022/11/19 05:26:39;;;;;;;15.63;6.68;;;-5.20;99.90;;;;;;4134799;28;20213;-79
2022/11/19 05:28:41;;;;;;;18.35;7.05;;;-4.70;99.90;;;;;;4131517;28;20214;-79
2022/11/19 05:30:45;;;;;;;16.08;6.72;;;-5.20;99.90;;;;;;4132152;28;20233;-79
2022/11/19 05:32:47;;;;;;;15.00;7.57;;;-5.20;99.90;;;;;;4132949;28;20205;-79
2022/11/19 05:34:49;;;;;;;15.00;6.75;;;-5.20;99.90;;;;;;4134161;28;20210;-80
2022/11/19 05:36:51;;;;;;;16.38;7.30;;;-5.20;99.90;;;;;;4129694;28;20210;-81
2022/11/19 05:38:53;;;;;;;16.33;7.53;;;-5.20;99.90;;;;;;4132424;28;20222;-81
2022/11/19 05:40:55;;;;;;;16.88;7.47;;;-5.20;99.90;;;;;;4134097;28;20326;-80
2022/11/19 05:42:57;;;;;;;17.70;7.15;;;-5.20;99.90;;;;;;4129846;28;20359;-80
2022/11/19 05:44:59;;;;;;;17.17;6.72;;;-5.20;99.90;;;;;;4132405;28;20716;-81
2022/11/19 05:47:02;;;;;;;16.48;7.20;;;-5.20;99.90;;;;;;4135903;28;20684;-80
2022/11/19 05:49:04;;;;;;;15.55;7.32;;;-5.30;99.90;;;;;;4132351;28;20209;-79
2022/11/19 05:51:06;;;;;;;18.55;7.50;;;-5.30;99.90;;;;;;4132547;28;20342;-79
2022/11/19 05:53:08;;;;;;;14.60;6.80;;;-5.30;99.90;;;;;;4134302;28;20649;-80
2022/11/19 05:55:10;;;;;;;15.82;7.40;;;-5.30;99.90;;;;;;4130209;28;20233;-80
2022/11/19 05:57:12;;;;;;;16.83;6.80;;;-5.30;99.90;;;;;;4129841;28;20903;-79
2022/11/19 05:59:14;;;;;;;15.70;6.95;;;-5.30;99.90;;;;;;4134137;28;20294;-80
2022/11/19 06:01:16;;;;;;;17.45;7.45;;;-5.30;99.90;;;;;;4133846;28;20233;-80
2022/11/19 06:03:20;;;;;;;16.25;6.90;;;-5.30;99.90;;;;;;4131612;28;20207;-79
2022/11/19 06:05:22;;;;;;;15.18;6.40;;;-5.30;99.90;;;;;;4129487;28;20634;-79
2022/11/19 06:07:24;;;;;;;17.60;7.28;;;-5.30;99.90;;;;;;4133997;28;20205;-80
2022/11/19 06:09:26;;;;;;;15.57;7.10;;;-4.90;99.90;;;;;;4134078;28;21041;-79
2022/11/19 06:13:47;;;;;;;16.17;7.10;;;-5.30;99.90;;;;;;4148693;28;20293;-80
2022/11/19 06:15:49;;;;;;;18.63;7.50;;;-5.40;99.90;;;;;;4133409;28;20210;-79
2022/11/19 06:17:51;;;;;;;16.63;7.82;;;-5.40;99.90;;;;;;4148272;28;20213;-79
2022/11/19 06:19:55;;;;;;;17.52;8.00;;;-5.30;99.90;;;;;;4130932;28;20212;-79
2022/11/19 06:21:57;;;;;;;15.43;6.93;;;-5.40;99.90;;;;;;4133946;28;20209;-78
2022/11/19 06:23:59;;;;;;;17.40;7.45;;;-5.40;99.90;;;;;;4135103;28;20229;-79
2022/11/19 06:26:01;;;;;;;16.23;7.18;;;-5.40;99.90;;;;;;4132822;28;20213;-79
2022/11/19 06:28:04;;;;;;;15.25;6.78;;;-5.40;99.90;;;;;;4129046;28;20305;-78
2022/11/19 06:30:07;;;;;;;16.65;6.85;;;-5.40;99.90;;;;;;4137228;28;20245;-79
2022/11/19 06:32:09;;;;;;;18.58;7.55;;;-5.40;99.90;;;;;;4134223;28;20214;-79
2022/11/19 06:34:11;;;;;;;14.65;7.03;;;-5.40;99.90;;;;;;4136649;28;20212;-81
2022/11/19 06:36:15;;;;;;;17.98;7.32;;;-5.40;99.90;;;;;;4134359;28;20302;-79
2022/11/19 06:38:16;;;;;;;17.70;7.57;;;-5.40;99.90;;;;;;4135145;28;20209;-79
2022/11/19 06:40:18;;;;;;;17.35;7.65;;;-5.40;99.90;;;;;;4131409;28;20752;-80
2022/11/19 06:42:36;;;;;;;20.20;8.40;;;-5.40;99.90;;;;;;4133411;28;20222;-78
2022/11/19 06:44:38;;;;;;;21.95;9.05;;;-5.40;99.90;;;;;;4147079;28;20216;-79
2022/11/19 06:46:40;;;;;;;22.20;7.55;;;-5.40;99.90;;;;;;4131579;28;20215;-78
2022/11/19 06:48:42;;;;;;;18.02;7.35;;;-5.40;99.90;;;;;;4132069;28;20215;-79
2022/11/19 06:50:45;;;;;;;21.45;8.18;;;-5.40;99.90;;;;;;4148722;28;20237;-79
2022/11/19 06:52:48;;;;;;;15.98;7.10;;;-5.40;99.90;;;;;;4131784;28;20273;-78
2022/11/19 06:54:50;;;;;;;16.55;7.82;;;-5.40;99.90;;;;;;4131053;28;20204;-78
2022/11/19 06:56:52;;;;;;;21.60;9.02;;;-5.40;99.90;;;;;;4130470;28;20285;-79
2022/11/19 06:58:57;;;;;;;16.58;8.25;;;-5.40;99.90;;;;;;4132312;28;20241;-79
2022/11/19 07:00:59;;;;;;;17.83;7.78;;;-5.40;99.90;;;;;;4130813;28;20261;-81
2022/11/19 07:03:01;;;;;;;16.85;8.27;;;-5.40;99.90;;;;;;4130791;28;20208;-79
2022/11/19 07:05:03;;;;;;;18.38;8.07;;;-5.40;99.90;;;;;;4133751;28;20224;-80
2022/11/19 07:07:06;;;;;;;16.67;7.55;;;-5.40;99.90;;;;;;4131414;28;20202;-79
2022/11/19 07:09:09;;;;;;;18.17;7.70;;;-5.30;99.90;;;;;;4130242;28;20220;-79
2022/11/19 07:11:26;;;;;;;20.85;8.35;;;-5.30;99.90;;;;;;4133516;28;20291;-79
2022/11/19 07:13:56;;;;;;;17.27;7.93;;;-5.30;99.90;;;;;;4132294;28;20220;-79
2022/11/19 07:15:50;;;;;;;17.73;8.00;;;-5.40;99.90;;;;;;4133079;28;20240;-81
2022/11/19 07:17:53;;;;;;;16.17;7.03;;;-5.30;99.90;;;;;;4141640;28;20212;-79
2022/11/19 07:19:55;;;;;;;17.83;6.97;;;-5.40;99.90;;;;;;4146601;28;20215;-79
2022/11/19 07:21:57;;;;;;;16.23;7.15;;;-5.30;99.90;;;;;;4143961;28;20204;-80
2022/11/19 07:24:00;;;;;;;16.30;7.38;;;-5.30;99.90;;;;;;4146350;28;20218;-80
2022/11/19 07:26:03;;;;;;;19.20;7.60;;;-5.30;99.90;;;;;;4144565;28;20656;-80
2022/11/19 07:28:05;;;;;;;13.82;7.30;;;-5.30;99.90;;;;;;4135393;28;20755;-79
2022/11/19 07:30:09;;;;;;;18.67;7.97;;;-5.30;99.90;;;;;;4130873;28;20288;-79
2022/11/19 07:32:11;;;;;;;17.15;7.60;;;-5.30;99.90;;;;;;4162922;23;20241;-73
2022/11/19 07:34:13;;;;;;;17.88;7.70;;;-4.90;99.90;;;;;;4128557;28;20712;-72
2022/11/19 07:36:15;;;;;;;15.85;7.15;;;-5.10;99.90;;;;;;4131099;28;20629;-72
2022/11/19 07:38:17;;;;;;;17.50;7.85;;;-5.30;99.90;;;;;;4130515;28;20211;-73
2022/11/19 07:40:19;;;;;;;16.25;6.90;;;-5.30;99.90;;;;;;4133633;28;20817;-73
2022/11/19 07:44:42;;;;;;;18.80;7.43;;;-5.30;99.90;;;;;;4106769;28;20258;-73
2022/11/19 07:46:44;;;;;;;17.20;6.78;;;-5.30;99.90;;;;;;4107733;28;20251;-73
2022/11/19 07:48:46;;;;;;;14.23;6.82;;;-5.30;99.90;;;;;;4107641;28;20223;-72
2022/11/19 07:50:51;;;;;;;15.23;7.07;;;-5.30;99.90;;;;;;4107813;28;20238;-72
2022/11/19 07:52:53;;;;;;;20.50;7.93;;;-5.30;99.90;;;;;;4103639;28;20210;-72
2022/11/19 07:54:55;;;;;;;18.88;8.10;;;-5.20;99.90;;;;;;4108166;28;20625;-72
2022/11/19 07:56:57;;;;;;;17.40;7.43;;;-5.20;99.90;;;;;;4107520;28;20211;-72
2022/11/19 07:59:01;;;;;;;20.70;7.57;;;-5.20;99.90;;;;;;4108885;28;20202;-73
2022/11/19 08:01:08;;;;;;;21.83;8.50;;;-5.20;99.90;;;;;;4106062;28;20216;-72
2022/11/19 08:03:11;;;;;;;18.30;7.60;;;-5.10;99.90;;;;;;4103949;28;20217;-73
2022/11/19 08:05:13;;;;;;;21.83;8.75;;;-5.10;99.90;;;;;;4103319;28;20321;-73
2022/11/19 08:07:15;;;;;;;20.20;8.88;;;-5.10;99.90;;;;;;4106438;28;20218;-72
2022/11/19 08:09:16;;;;;;;19.95;8.65;;;-5.00;99.90;;;;;;4103819;28;20234;-73
2022/11/19 08:11:19;;;;;;;19.25;8.45;;;-5.00;99.90;;;;;;4105707;28;20293;-72
2022/11/19 08:13:21;;;;;;;21.23;9.05;;;-5.00;99.90;;;;;;4107555;28;20217;-72
2022/11/19 08:15:24;;;;;;;23.15;9.45;;;-4.90;99.90;;;;;;4104834;28;20202;-73
2022/11/19 08:19:45;;;;;;;24.92;9.38;;;-4.80;99.90;;;;;;4106079;28;20216;-73
2022/11/19 08:21:47;;;;;;;21.10;9.43;;;-4.70;99.90;;;;;;4105039;28;20607;-73
2022/11/19 08:23:49;;;;;;;21.20;9.00;;;-4.70;99.90;;;;;;4106343;28;20297;-73
2022/11/19 08:25:51;;;;;;;19.67;8.85;;;-4.60;99.90;;;;;;4106423;28;20241;-72
2022/11/19 08:27:53;;;;;;;24.40;9.57;;;-4.60;99.90;;;;;;4107110;28;20230;-74
2022/11/19 08:29:55;;;;;;;21.80;8.30;;;-4.60;99.90;;;;;;4112662;28;20212;-73
2022/11/19 08:32:01;;;;;;;21.27;8.82;;;-4.50;99.90;;;;;;4107212;28;20909;-74
2022/11/19 08:34:03;;;;;;;18.48;8.85;;;-4.50;99.90;;;;;;4107188;28;20215;-73
2022/11/19 08:36:05;;;;;;;19.73;9.13;;;-4.50;99.90;;;;;;4108049;28;20668;-73
2022/11/19 08:38:07;;;;;;;19.83;9.25;;;-4.40;99.90;;;;;;4108282;28;20258;-74
2022/11/19 08:40:10;;;;;;;19.48;8.75;;;-4.40;99.90;;;;;;4105888;28;20205;-74
2022/11/19 08:44:31;;;;;;;24.58;9.85;;;-4.30;99.90;;;;;;4105573;28;20224;-73
2022/11/19 08:46:33;;;;;;;23.65;10.13;;;-4.30;99.90;;;;;;4104613;28;20226;-73
2022/11/19 08:48:37;;;;;;;22.98;9.68;;;-4.20;99.90;;;;;;4104403;28;20213;-73
2022/11/19 08:50:42;;;;;;;25.23;10.18;;;-4.20;99.90;;;;;;4102879;28;20209;-74
2022/11/19 08:52:43;;;;;;;22.25;9.85;;;-4.10;99.90;;;;;;4101972;28;20253;-73
2022/11/19 08:54:45;;;;;;;19.70;8.77;;;-4.10;99.90;;;;;;4103072;28;20209;-73
2022/11/19 08:56:47;;;;;;;24.58;10.23;;;-4.00;99.90;;;;;;4102083;28;20213;-73
2022/11/19 08:58:49;;;;;;;21.95;9.68;;;-4.00;99.90;;;;;;4116912;28;20212;-72
2022/11/19 09:00:51;;;;;;;20.27;9.85;;;-3.90;99.90;;;;;;4119510;28;20247;-72
2022/11/19 09:02:53;;;;;;;24.25;10.35;;;-3.40;99.90;;;;;;4104752;28;20206;-72
2022/11/19 09:04:56;;;;;;;22.00;11.07;;;-3.80;99.90;;;;;;4103239;28;20255;-72
2022/11/19 09:06:58;;;;;;;20.73;9.55;;;-3.70;99.90;;;;;;4101154;28;20239;-73
2022/11/19 09:09:01;;;;;;;22.30;10.05;;;-3.60;99.90;;;;;;4106489;28;20202;-73
2022/11/19 09:11:07;;;;;;;22.67;10.30;;;-3.50;99.90;;;;;;4106239;28;20233;-71
2022/11/19 09:13:09;;;;;;;20.85;10.57;;;-3.50;99.90;;;;;;4117979;28;20205;-73
2022/11/19 09:15:11;;;;;;;26.02;11.18;;;-3.40;99.90;;;;;;4107739;28;20639;-73
2022/11/19 09:17:13;;;;;;;24.67;11.30;;;-3.40;99.90;;;;;;4105038;28;20209;-74
2022/11/19 09:19:15;;;;;;;23.42;10.98;;;-3.30;99.90;;;;;;4106696;28;20603;-73
2022/11/19 09:21:18;;;;;;;24.90;10.15;;;-3.30;99.90;;;;;;4105407;28;20264;-73
2022/11/19 09:23:20;;;;;;;24.25;10.73;;;-3.20;99.90;;;;;;4105623;28;20218;-73
2022/11/19 09:25:22;;;;;;;23.42;11.02;;;-3.10;99.90;;;;;;4108219;28;20319;-73
2022/11/19 09:27:24;;;;;;;23.40;10.57;;;-3.10;99.90;;;;;;4103199;28;20214;-73
2022/11/19 09:29:26;;;;;;;21.10;9.90;;;-3.00;99.90;;;;;;4102326;28;20213;-73
2022/11/19 09:31:28;;;;;;;21.17;10.30;;;-2.90;99.90;;;;;;4104893;28;20659;-73
2022/11/19 09:33:34;;;;;;;26.02;10.20;;;-2.80;99.90;;;;;;4104758;28;20243;-72
2022/11/19 09:35:36;;;;;;;20.17;9.75;;;-2.80;99.90;;;;;;4108128;28;20723;-72
2022/11/19 09:37:39;;;;;;;22.48;11.15;;;-2.70;99.90;;;;;;4105180;28;20205;-73
2022/11/19 09:39:41;;;;;;;25.02;11.00;;;-2.60;99.90;;;;;;4103681;28;20244;-71
2022/11/19 09:41:50;;;;;;;25.10;10.85;;;-2.60;99.90;;;;;;4103882;28;20304;-72
2022/11/19 09:44:06;;;;;;;21.98;10.82;;;-2.50;99.90;;;;;;4106085;28;20204;-74
2022/11/19 09:46:17;;;;;;;24.45;10.65;;;-2.40;99.90;;;;;;4104384;28;20229;-72
2022/11/19 09:48:28;;;;;;;22.20;9.82;;;-2.40;99.90;;;;;;4110784;28;20213;-72
2022/11/19 09:50:33;;;;;;;22.52;10.18;;;-2.30;99.90;;;;;;4105548;28;20293;-72
2022/11/19 09:52:42;;;;;;;23.48;10.52;;;-2.20;99.90;;;;;;4105299;28;20312;-72
2022/11/19 09:54:48;;;;;;;21.45;10.30;;;-2.10;99.90;;;;;;4105526;28;20667;-72
2022/11/19 09:56:54;;;;;;;20.33;9.67;;;-2.00;99.90;;;;;;4107602;28;20201;-72
2022/11/19 09:58:57;;;;;;;18.85;9.50;;;-2.00;99.90;;;;;;4103646;28;20468;-72
2022/11/19 10:01:00;;;;;;;19.98;9.35;;;-1.90;99.90;;;;;;4102224;28;20209;-73
2022/11/19 10:03:11;;;;;;;22.75;9.93;;;-1.80;99.90;;;;;;4101365;28;20340;-72
2022/11/19 10:05:15;;;;;;;21.03;10.00;;;-1.70;99.90;;;;;;4103244;28;20245;-72
2022/11/19 10:07:29;;;;;;;19.47;9.67;;;-1.60;99.90;;;;;;4103602;28;21119;-72
2022/11/19 10:09:52;;;;;;;20.00;9.13;;;-1.60;99.90;;;;;;4101306;28;20484;-73
2022/11/19 10:12:06;;;;;;;21.07;9.23;;;-1.40;99.90;;;;;;4117990;28;20514;-73
2022/11/19 10:14:18;;;;;;;22.23;9.80;;;-1.30;99.90;;;;;;4104052;28;20540;-72
2022/11/19 10:16:31;;;;;;;18.57;9.07;;;-1.20;99.90;;;;;;4103880;28;20507;-72
2022/11/19 10:18:43;;;;;;;20.40;9.43;;;-1.10;99.90;;;;;;4101558;28;20503;-72
2022/11/19 10:20:55;;;;;;;18.40;9.03;;;-1.10;99.90;;;;;;4105698;28;20516;-72
2022/11/19 10:23:03;;;;;;;17.40;9.00;;;-1.00;99.90;;;;;;4105926;28;20483;-72
2022/11/19 10:25:18;;;;;;;19.83;8.77;;;-1.00;99.90;;;;;;4101960;28;21074;-72
2022/11/19 10:27:30;;;;;;;17.17;8.83;;;-0.90;99.90;;;;;;4105599;28;20500;-72
2022/11/19 10:29:37;;;;;;;19.57;8.47;;;-0.80;99.90;;;;;;4107231;28;20894;-72
2022/11/19 10:31:44;;;;;;;17.27;8.27;;;-0.70;99.90;;;;;;4103549;28;20509;-72
2022/11/19 10:33:51;;;;;;;17.27;8.63;;;-0.60;99.90;;;;;;4104420;28;20518;-76
2022/11/19 10:35:56;;;;;;;16.93;8.13;;;-0.60;99.90;;;;;;4104746;28;20916;-75
2022/11/19 10:38:01;;;;;;;16.67;7.93;;;-0.60;99.90;;;;;;4104311;28;20452;-74
2022/11/19 10:40:11;;;;;;;15.70;8.30;;;-0.50;99.90;;;;;;4101445;28;20485;-73
2022/11/19 10:42:19;;;;;;;15.47;8.27;;;-0.50;99.90;;;;;;4104869;28;20477;-74
2022/11/19 10:44:37;;;;;;;18.07;9.30;;;-0.40;99.90;;;;;;4104407;28;20863;-75
2022/11/19 10:46:40;;;;;;;22.23;9.97;;;-0.30;99.90;;;;;;4100380;28;20461;-74
2022/11/19 10:48:45;;;;;;;17.57;8.77;;;-0.30;99.90;;;;;;4105275;28;21014;-75
2022/11/19 10:50:47;;;;;;;19.50;9.33;;;-0.20;99.90;;;;;;4119983;28;20939;-75
2022/11/19 10:52:52;;;;;;;16.27;8.43;;;-0.20;99.90;;;;;;4106587;28;20967;-75
2022/11/19 10:54:59;;;;;;;14.70;8.27;;;-0.20;99.90;;;;;;4101999;28;22155;-72
2022/11/19 10:57:02;;;;;;;16.20;8.77;;;-0.10;99.90;;;;;;4105668;28;21003;-71
2022/11/19 10:59:11;;;;;;;17.67;8.70;;;-0.10;99.90;;;;;;4105585;28;20933;-72
2022/11/19 11:01:17;;;;;;;17.87;8.10;;;-0.10;99.90;;;;;;4100584;28;20926;-72
2022/11/19 11:03:25;;;;;;;16.57;8.90;;;0.00;99.90;;;;;;4105981;28;20822;-71